sensor_id;sensor_type;location;lat;lon;timestamp;P1;durP1;ratioP1;P2;durP2;ratioP2
3311;SDS011;1668;49.648;8.570;2024-03-02T00:01:14;11.40;;;7.40;;
3311;SDS011;1668;49.648;8.570;2024-03-02T00:03:42;12.47;;;7.53;;
3311;SDS011;1668;49.648;8.570;2024-03-02T00:06:10;12.17;;;8.00;;
3311;SDS011;1668;49.648;8.570;2024-03-02T00:08:37;10.90;;;7.53;;
3311;SDS011;1668;49.648;8.570;2024-03-02T00:11:04;11.53;;;8.40;;
3311;SDS011;1668;49.648;8.570;2024-03-02T00:13:31;11.93;;;7.90;;
3311;SDS011;1668;49.648;8.570;2024-03-02T00:16:00;12.63;;;8.33;;
3311;SDS011;1668;49.648;8.570;2024-03-02T00:18:30;12.30;;;8.00;;
3311;SDS011;1668;49.648;8.570;2024-03-02T00:20:58;12.53;;;8.30;;
3311;SDS011;1668;49.648;8.570;2024-03-02T00:23:29;12.87;;;8.40;;
3311;SDS011;1668;49.648;8.570;2024-03-02T00:25:56;12.27;;;8.77;;
3311;SDS011;1668;49.648;8.570;2024-03-02T00:28:25;14.97;;;8.60;;
3311;SDS011;1668;49.648;8.570;2024-03-02T00:30:59;13.13;;;8.30;;
3311;SDS011;1668;49.648;8.570;2024-03-02T00:33:30;13.10;;;8.87;;
3311;SDS011;1668;49.648;8.570;2024-03-02T00:35:58;15.20;;;9.23;;
3311;SDS011;1668;49.648;8.570;2024-03-02T00:38:27;17.67;;;9.97;;
3311;SDS011;1668;49.648;8.570;2024-03-02T00:40:54;16.10;;;9.73;;
3311;SDS011;1668;49.648;8.570;2024-03-02T00:46:10;15.40;;;8.90;;
3311;SDS011;1668;49.648;8.570;2024-03-02T00:48:38;18.17;;;9.13;;
3311;SDS011;1668;49.648;8.570;2024-03-02T00:51:05;16.17;;;9.33;;
3311;SDS011;1668;49.648;8.570;2024-03-02T00:53:34;12.73;;;8.63;;
3311;SDS011;1668;49.648;8.570;2024-03-02T00:56:01;11.40;;;8.00;;
3311;SDS011;1668;49.648;8.570;2024-03-02T00:58:28;13.63;;;8.70;;
3311;SDS011;1668;49.648;8.570;2024-03-02T01:00:55;13.73;;;8.60;;
3311;SDS011;1668;49.648;8.570;2024-03-02T01:03:21;12.00;;;8.40;;
3311;SDS011;1668;49.648;8.570;2024-03-02T01:05:49;13.83;;;9.30;;
3311;SDS011;1668;49.648;8.570;2024-03-02T01:08:16;15.10;;;9.10;;
3311;SDS011;1668;49.648;8.570;2024-03-02T01:10:44;15.97;;;9.83;;
3311;SDS011;1668;49.648;8.570;2024-03-02T01:13:11;14.53;;;9.43;;
3311;SDS011;1668;49.648;8.570;2024-03-02T01:15:38;14.87;;;9.33;;
3311;SDS011;1668;49.648;8.570;2024-03-02T01:18:05;14.30;;;8.90;;
3311;SDS011;1668;49.648;8.570;2024-03-02T01:20:31;14.67;;;9.03;;
3311;SDS011;1668;49.648;8.570;2024-03-02T01:22:58;16.77;;;9.60;;
3311;SDS011;1668;49.648;8.570;2024-03-02T01:25:25;12.90;;;8.07;;
3311;SDS011;1668;49.648;8.570;2024-03-02T01:27:53;16.10;;;9.70;;
3311;SDS011;1668;49.648;8.570;2024-03-02T01:30:20;13.40;;;8.30;;
3311;SDS011;1668;49.648;8.570;2024-03-02T01:32:47;13.30;;;8.83;;
3311;SDS011;1668;49.648;8.570;2024-03-02T01:35:13;13.33;;;8.10;;
3311;SDS011;1668;49.648;8.570;2024-03-02T01:37:40;14.53;;;8.87;;
3311;SDS011;1668;49.648;8.570;2024-03-02T01:40:08;14.27;;;8.70;;
3311;SDS011;1668;49.648;8.570;2024-03-02T01:42:35;12.50;;;6.93;;
3311;SDS011;1668;49.648;8.570;2024-03-02T01:45:05;13.53;;;8.40;;
3311;SDS011;1668;49.648;8.570;2024-03-02T01:47:33;12.67;;;8.00;;
3311;SDS011;1668;49.648;8.570;2024-03-02T01:50:00;14.57;;;8.87;;
3311;SDS011;1668;49.648;8.570;2024-03-02T01:52:27;16.27;;;8.70;;
3311;SDS011;1668;49.648;8.570;2024-03-02T01:54:54;13.00;;;8.20;;
3311;SDS011;1668;49.648;8.570;2024-03-02T01:57:22;15.33;;;8.63;;
3311;SDS011;1668;49.648;8.570;2024-03-02T01:59:48;13.87;;;8.13;;
3311;SDS011;1668;49.648;8.570;2024-03-02T02:02:17;12.93;;;8.30;;
3311;SDS011;1668;49.648;8.570;2024-03-02T02:04:45;12.90;;;7.97;;
3311;SDS011;1668;49.648;8.570;2024-03-02T02:07:12;14.30;;;7.93;;
3311;SDS011;1668;49.648;8.570;2024-03-02T02:09:39;13.17;;;7.87;;
3311;SDS011;1668;49.648;8.570;2024-03-02T02:12:07;14.80;;;8.60;;
3311;SDS011;1668;49.648;8.570;2024-03-02T02:14:34;16.80;;;9.23;;
3311;SDS011;1668;49.648;8.570;2024-03-02T02:17:01;14.10;;;8.40;;
3311;SDS011;1668;49.648;8.570;2024-03-02T02:19:29;13.40;;;8.57;;
3311;SDS011;1668;49.648;8.570;2024-03-02T02:21:57;14.30;;;8.20;;
3311;SDS011;1668;49.648;8.570;2024-03-02T02:24:24;13.63;;;8.73;;
3311;SDS011;1668;49.648;8.570;2024-03-02T02:26:51;12.83;;;8.67;;
3311;SDS011;1668;49.648;8.570;2024-03-02T02:29:18;13.30;;;8.70;;
3311;SDS011;1668;49.648;8.570;2024-03-02T02:31:44;13.00;;;8.40;;
3311;SDS011;1668;49.648;8.570;2024-03-02T02:34:11;15.10;;;9.17;;
3311;SDS011;1668;49.648;8.570;2024-03-02T02:36:40;13.70;;;8.60;;
3311;SDS011;1668;49.648;8.570;2024-03-02T02:39:09;13.87;;;8.10;;
3311;SDS011;1668;49.648;8.570;2024-03-02T02:41:39;15.37;;;8.87;;
3311;SDS011;1668;49.648;8.570;2024-03-02T02:44:06;12.87;;;8.20;;
3311;SDS011;1668;49.648;8.570;2024-03-02T02:46:33;13.40;;;8.57;;
3311;SDS011;1668;49.648;8.570;2024-03-02T02:49:00;20.70;;;8.77;;
3311;SDS011;1668;49.648;8.570;2024-03-02T02:51:27;15.00;;;9.13;;
3311;SDS011;1668;49.648;8.570;2024-03-02T02:53:53;13.67;;;8.60;;
3311;SDS011;1668;49.648;8.570;2024-03-02T02:56:22;11.97;;;8.30;;
3311;SDS011;1668;49.648;8.570;2024-03-02T02:58:48;11.33;;;7.87;;
3311;SDS011;1668;49.648;8.570;2024-03-02T03:01:15;14.70;;;8.80;;
3311;SDS011;1668;49.648;8.570;2024-03-02T03:03:43;11.73;;;8.40;;
3311;SDS011;1668;49.648;8.570;2024-03-02T03:06:10;14.20;;;8.77;;
3311;SDS011;1668;49.648;8.570;2024-03-02T03:08:37;13.40;;;8.50;;
3311;SDS011;1668;49.648;8.570;2024-03-02T03:11:04;15.63;;;8.70;;
3311;SDS011;1668;49.648;8.570;2024-03-02T03:13:33;13.80;;;7.73;;
3311;SDS011;1668;49.648;8.570;2024-03-02T03:16:00;12.13;;;8.67;;
3311;SDS011;1668;49.648;8.570;2024-03-02T03:18:28;14.43;;;8.63;;
3311;SDS011;1668;49.648;8.570;2024-03-02T03:20:54;11.90;;;7.70;;
3311;SDS011;1668;49.648;8.570;2024-03-02T03:23:21;14.13;;;8.37;;
3311;SDS011;1668;49.648;8.570;2024-03-02T03:25:48;12.27;;;7.47;;
3311;SDS011;1668;49.648;8.570;2024-03-02T03:28:15;11.07;;;7.40;;
3311;SDS011;1668;49.648;8.570;2024-03-02T03:30:43;10.93;;;6.90;;
3311;SDS011;1668;49.648;8.570;2024-03-02T03:33:10;12.33;;;7.80;;
3311;SDS011;1668;49.648;8.570;2024-03-02T03:35:37;13.47;;;7.07;;
3311;SDS011;1668;49.648;8.570;2024-03-02T03:38:03;11.77;;;7.87;;
3311;SDS011;1668;49.648;8.570;2024-03-02T03:40:30;11.50;;;7.67;;
3311;SDS011;1668;49.648;8.570;2024-03-02T03:42:57;10.87;;;6.80;;
3311;SDS011;1668;49.648;8.570;2024-03-02T03:45:25;12.83;;;7.40;;
3311;SDS011;1668;49.648;8.570;2024-03-02T03:47:53;13.70;;;7.43;;
3311;SDS011;1668;49.648;8.570;2024-03-02T03:50:20;13.50;;;7.70;;
3311;SDS011;1668;49.648;8.570;2024-03-02T03:52:47;13.27;;;7.17;;
3311;SDS011;1668;49.648;8.570;2024-03-02T03:55:14;11.00;;;6.70;;
3311;SDS011;1668;49.648;8.570;2024-03-02T03:57:41;11.73;;;6.90;;
3311;SDS011;1668;49.648;8.570;2024-03-02T04:00:08;11.30;;;7.00;;
3311;SDS011;1668;49.648;8.570;2024-03-02T04:02:37;11.47;;;6.23;;
3311;SDS011;1668;49.648;8.570;2024-03-02T04:05:05;11.37;;;6.90;;
3311;SDS011;1668;49.648;8.570;2024-03-02T04:07:35;11.10;;;7.07;;
3311;SDS011;1668;49.648;8.570;2024-03-02T04:10:06;10.03;;;6.33;;
3311;SDS011;1668;49.648;8.570;2024-03-02T04:12:33;12.03;;;7.60;;
3311;SDS011;1668;49.648;8.570;2024-03-02T04:15:00;12.97;;;7.13;;
3311;SDS011;1668;49.648;8.570;2024-03-02T04:17:29;12.60;;;7.70;;
3311;SDS011;1668;49.648;8.570;2024-03-02T04:19:57;9.83;;;6.90;;
3311;SDS011;1668;49.648;8.570;2024-03-02T04:22:26;15.93;;;7.90;;
3311;SDS011;1668;49.648;8.570;2024-03-02T04:24:52;10.80;;;7.20;;
3311;SDS011;1668;49.648;8.570;2024-03-02T04:27:19;14.50;;;7.90;;
3311;SDS011;1668;49.648;8.570;2024-03-02T04:29:46;13.70;;;7.30;;
3311;SDS011;1668;49.648;8.570;2024-03-02T04:32:13;12.13;;;7.80;;
3311;SDS011;1668;49.648;8.570;2024-03-02T04:34:39;11.10;;;7.20;;
3311;SDS011;1668;49.648;8.570;2024-03-02T04:37:07;11.10;;;7.13;;
3311;SDS011;1668;49.648;8.570;2024-03-02T04:39:36;9.87;;;7.20;;
3311;SDS011;1668;49.648;8.570;2024-03-02T04:42:03;11.43;;;6.80;;
3311;SDS011;1668;49.648;8.570;2024-03-02T04:44:30;11.17;;;7.30;;
3311;SDS011;1668;49.648;8.570;2024-03-02T04:46:56;11.67;;;7.07;;
3311;SDS011;1668;49.648;8.570;2024-03-02T04:49:23;10.57;;;6.57;;
3311;SDS011;1668;49.648;8.570;2024-03-02T04:51:50;11.53;;;7.10;;
3311;SDS011;1668;49.648;8.570;2024-03-02T04:54:17;11.60;;;7.40;;
3311;SDS011;1668;49.648;8.570;2024-03-02T04:56:45;11.30;;;6.90;;
3311;SDS011;1668;49.648;8.570;2024-03-02T04:59:15;10.03;;;6.70;;
3311;SDS011;1668;49.648;8.570;2024-03-02T05:01:43;12.70;;;7.73;;
3311;SDS011;1668;49.648;8.570;2024-03-02T05:04:10;10.87;;;7.00;;
3311;SDS011;1668;49.648;8.570;2024-03-02T05:06:37;12.63;;;7.00;;
3311;SDS011;1668;49.648;8.570;2024-03-02T05:09:05;15.57;;;7.80;;
3311;SDS011;1668;49.648;8.570;2024-03-02T05:11:32;13.00;;;8.53;;
3311;SDS011;1668;49.648;8.570;2024-03-02T05:14:22;15.17;;;8.00;;
3311;SDS011;1668;49.648;8.570;2024-03-02T05:16:49;14.70;;;8.83;;
3311;SDS011;1668;49.648;8.570;2024-03-02T05:19:16;17.67;;;9.30;;
3311;SDS011;1668;49.648;8.570;2024-03-02T05:21:43;16.20;;;9.17;;
3311;SDS011;1668;49.648;8.570;2024-03-02T05:24:13;16.10;;;10.03;;
3311;SDS011;1668;49.648;8.570;2024-03-02T05:27:06;18.83;;;9.70;;
3311;SDS011;1668;49.648;8.570;2024-03-02T05:29:34;14.43;;;8.47;;
3311;SDS011;1668;49.648;8.570;2024-03-02T05:32:01;15.00;;;8.97;;
3311;SDS011;1668;49.648;8.570;2024-03-02T05:34:27;14.17;;;9.10;;
3311;SDS011;1668;49.648;8.570;2024-03-02T05:36:55;15.53;;;9.43;;
3311;SDS011;1668;49.648;8.570;2024-03-02T05:39:22;14.10;;;9.20;;
3311;SDS011;1668;49.648;8.570;2024-03-02T05:41:49;12.97;;;8.63;;
3311;SDS011;1668;49.648;8.570;2024-03-02T05:44:16;16.80;;;9.23;;
3311;SDS011;1668;49.648;8.570;2024-03-02T05:46:44;15.00;;;9.23;;
3311;SDS011;1668;49.648;8.570;2024-03-02T05:49:11;15.03;;;9.23;;
3311;SDS011;1668;49.648;8.570;2024-03-02T05:51:38;17.77;;;8.60;;
3311;SDS011;1668;49.648;8.570;2024-03-02T05:54:05;13.33;;;8.43;;
3311;SDS011;1668;49.648;8.570;2024-03-02T05:56:32;12.03;;;7.53;;
3311;SDS011;1668;49.648;8.570;2024-03-02T05:58:59;14.03;;;7.63;;
3311;SDS011;1668;49.648;8.570;2024-03-02T06:01:37;13.07;;;7.80;;
3311;SDS011;1668;49.648;8.570;2024-03-02T06:04:05;11.60;;;7.90;;
3311;SDS011;1668;49.648;8.570;2024-03-02T06:06:32;14.33;;;6.87;;
3311;SDS011;1668;49.648;8.570;2024-03-02T06:08:59;10.13;;;6.83;;
3311;SDS011;1668;49.648;8.570;2024-03-02T06:11:27;11.90;;;8.20;;
3311;SDS011;1668;49.648;8.570;2024-03-02T06:13:54;13.00;;;7.50;;
3311;SDS011;1668;49.648;8.570;2024-03-02T06:16:21;16.30;;;7.53;;
3311;SDS011;1668;49.648;8.570;2024-03-02T06:18:48;14.47;;;7.80;;
3311;SDS011;1668;49.648;8.570;2024-03-02T06:21:16;12.07;;;7.53;;
3311;SDS011;1668;49.648;8.570;2024-03-02T06:23:43;13.97;;;7.50;;
3311;SDS011;1668;49.648;8.570;2024-03-02T06:26:10;12.77;;;8.03;;
3311;SDS011;1668;49.648;8.570;2024-03-02T06:28:37;13.80;;;9.13;;
3311;SDS011;1668;49.648;8.570;2024-03-02T06:31:04;11.90;;;8.53;;
3311;SDS011;1668;49.648;8.570;2024-03-02T06:33:30;16.27;;;9.50;;
3311;SDS011;1668;49.648;8.570;2024-03-02T06:35:56;14.97;;;10.07;;
3311;SDS011;1668;49.648;8.570;2024-03-02T06:38:25;16.70;;;10.37;;
3311;SDS011;1668;49.648;8.570;2024-03-02T06:40:52;13.63;;;9.37;;
3311;SDS011;1668;49.648;8.570;2024-03-02T06:43:20;16.47;;;10.10;;
3311;SDS011;1668;49.648;8.570;2024-03-02T06:45:48;12.83;;;8.90;;
3311;SDS011;1668;49.648;8.570;2024-03-02T06:48:15;14.97;;;9.40;;
3311;SDS011;1668;49.648;8.570;2024-03-02T06:50:45;13.90;;;9.30;;
3311;SDS011;1668;49.648;8.570;2024-03-02T06:53:11;15.23;;;9.83;;
3311;SDS011;1668;49.648;8.570;2024-03-02T06:55:40;15.90;;;10.33;;
3311;SDS011;1668;49.648;8.570;2024-03-02T06:58:07;19.20;;;11.37;;
3311;SDS011;1668;49.648;8.570;2024-03-02T07:00:33;18.07;;;10.13;;
3311;SDS011;1668;49.648;8.570;2024-03-02T07:03:00;16.23;;;10.33;;
3311;SDS011;1668;49.648;8.570;2024-03-02T07:05:32;17.47;;;11.33;;
3311;SDS011;1668;49.648;8.570;2024-03-02T07:08:01;17.27;;;11.43;;
3311;SDS011;1668;49.648;8.570;2024-03-02T07:10:37;16.10;;;10.50;;
3311;SDS011;1668;49.648;8.570;2024-03-02T07:13:05;18.33;;;11.90;;
3311;SDS011;1668;49.648;8.570;2024-03-02T07:15:35;19.03;;;11.43;;
3311;SDS011;1668;49.648;8.570;2024-03-02T07:18:18;18.00;;;12.70;;
3311;SDS011;1668;49.648;8.570;2024-03-02T07:20:45;16.33;;;11.60;;
3311;SDS011;1668;49.648;8.570;2024-03-02T07:23:14;17.23;;;10.90;;
3311;SDS011;1668;49.648;8.570;2024-03-02T07:25:41;16.27;;;11.33;;
3311;SDS011;1668;49.648;8.570;2024-03-02T07:28:09;20.10;;;11.40;;
3311;SDS011;1668;49.648;8.570;2024-03-02T07:30:36;20.20;;;11.87;;
3311;SDS011;1668;49.648;8.570;2024-03-02T07:33:04;17.37;;;10.80;;
3311;SDS011;1668;49.648;8.570;2024-03-02T07:35:31;16.17;;;10.70;;
3311;SDS011;1668;49.648;8.570;2024-03-02T07:37:58;17.33;;;10.73;;
3311;SDS011;1668;49.648;8.570;2024-03-02T07:40:25;13.63;;;10.13;;
3311;SDS011;1668;49.648;8.570;2024-03-02T07:42:52;18.73;;;11.40;;
3311;SDS011;1668;49.648;8.570;2024-03-02T07:45:21;14.97;;;10.87;;
3311;SDS011;1668;49.648;8.570;2024-03-02T07:47:48;17.67;;;11.30;;
3311;SDS011;1668;49.648;8.570;2024-03-02T07:50:15;18.60;;;12.70;;
3311;SDS011;1668;49.648;8.570;2024-03-02T07:52:41;17.10;;;11.30;;
3311;SDS011;1668;49.648;8.570;2024-03-02T07:55:09;20.73;;;11.67;;
3311;SDS011;1668;49.648;8.570;2024-03-02T07:57:36;17.30;;;11.43;;
3311;SDS011;1668;49.648;8.570;2024-03-02T08:00:03;18.20;;;11.33;;
3311;SDS011;1668;49.648;8.570;2024-03-02T08:02:32;15.53;;;10.30;;
3311;SDS011;1668;49.648;8.570;2024-03-02T08:04:58;18.13;;;11.53;;
3311;SDS011;1668;49.648;8.570;2024-03-02T08:07:26;15.50;;;10.23;;
3311;SDS011;1668;49.648;8.570;2024-03-02T08:09:53;18.40;;;12.17;;
3311;SDS011;1668;49.648;8.570;2024-03-02T08:12:19;19.10;;;11.70;;
3311;SDS011;1668;49.648;8.570;2024-03-02T08:14:48;20.23;;;12.13;;
3311;SDS011;1668;49.648;8.570;2024-03-02T08:17:15;14.83;;;11.17;;
3311;SDS011;1668;49.648;8.570;2024-03-02T08:19:43;17.77;;;12.67;;
3311;SDS011;1668;49.648;8.570;2024-03-02T08:22:10;18.70;;;12.60;;
3311;SDS011;1668;49.648;8.570;2024-03-02T08:24:37;18.57;;;12.40;;
3311;SDS011;1668;49.648;8.570;2024-03-02T08:27:04;19.60;;;12.30;;
3311;SDS011;1668;49.648;8.570;2024-03-02T08:29:31;21.73;;;13.50;;
3311;SDS011;1668;49.648;8.570;2024-03-02T08:31:57;20.07;;;13.23;;
3311;SDS011;1668;49.648;8.570;2024-03-02T08:34:24;19.40;;;12.63;;
3311;SDS011;1668;49.648;8.570;2024-03-02T08:36:52;21.87;;;13.80;;
3311;SDS011;1668;49.648;8.570;2024-03-02T08:39:19;19.27;;;12.67;;
3311;SDS011;1668;49.648;8.570;2024-03-02T08:41:47;21.33;;;14.00;;
3311;SDS011;1668;49.648;8.570;2024-03-02T08:44:14;19.80;;;12.67;;
3311;SDS011;1668;49.648;8.570;2024-03-02T08:46:41;20.20;;;12.67;;
3311;SDS011;1668;49.648;8.570;2024-03-02T08:49:08;22.10;;;12.73;;
3311;SDS011;1668;49.648;8.570;2024-03-02T08:51:35;17.87;;;12.80;;
3311;SDS011;1668;49.648;8.570;2024-03-02T08:54:03;18.23;;;12.60;;
3311;SDS011;1668;49.648;8.570;2024-03-02T08:56:31;22.33;;;13.83;;
3311;SDS011;1668;49.648;8.570;2024-03-02T08:58:57;21.33;;;13.33;;
3311;SDS011;1668;49.648;8.570;2024-03-02T09:01:24;17.73;;;12.00;;
3311;SDS011;1668;49.648;8.570;2024-03-02T09:03:51;15.60;;;11.23;;
3311;SDS011;1668;49.648;8.570;2024-03-02T09:06:18;22.17;;;12.23;;
3311;SDS011;1668;49.648;8.570;2024-03-02T09:08:46;19.63;;;12.47;;
3311;SDS011;1668;49.648;8.570;2024-03-02T09:11:15;15.60;;;11.10;;
3311;SDS011;1668;49.648;8.570;2024-03-02T09:13:43;19.40;;;12.60;;
3311;SDS011;1668;49.648;8.570;2024-03-02T09:16:09;18.00;;;11.23;;
3311;SDS011;1668;49.648;8.570;2024-03-02T09:18:37;19.70;;;11.20;;
3311;SDS011;1668;49.648;8.570;2024-03-02T09:21:04;16.30;;;10.73;;
3311;SDS011;1668;49.648;8.570;2024-03-02T09:23:31;15.50;;;10.20;;
3311;SDS011;1668;49.648;8.570;2024-03-02T09:25:58;14.73;;;10.40;;
3311;SDS011;1668;49.648;8.570;2024-03-02T09:28:26;16.93;;;10.27;;
3311;SDS011;1668;49.648;8.570;2024-03-02T09:30:53;15.23;;;10.33;;
3311;SDS011;1668;49.648;8.570;2024-03-02T09:33:20;12.83;;;8.77;;
3311;SDS011;1668;49.648;8.570;2024-03-02T09:35:47;14.37;;;9.70;;
3311;SDS011;1668;49.648;8.570;2024-03-02T09:38:14;11.53;;;8.20;;
3311;SDS011;1668;49.648;8.570;2024-03-02T09:40:41;13.37;;;8.17;;
3311;SDS011;1668;49.648;8.570;2024-03-02T09:43:08;13.90;;;9.30;;
3311;SDS011;1668;49.648;8.570;2024-03-02T09:45:37;13.60;;;9.37;;
3311;SDS011;1668;49.648;8.570;2024-03-02T09:48:04;23.87;;;7.97;;
3311;SDS011;1668;49.648;8.570;2024-03-02T09:50:32;15.97;;;6.87;;
3311;SDS011;1668;49.648;8.570;2024-03-02T09:52:59;7.67;;;5.63;;
3311;SDS011;1668;49.648;8.570;2024-03-02T09:55:25;8.90;;;5.20;;
3311;SDS011;1668;49.648;8.570;2024-03-02T09:57:53;8.77;;;5.63;;
3311;SDS011;1668;49.648;8.570;2024-03-02T10:00:19;8.13;;;5.60;;
3311;SDS011;1668;49.648;8.570;2024-03-02T10:02:48;7.60;;;5.63;;
3311;SDS011;1668;49.648;8.570;2024-03-02T10:05:23;9.40;;;6.43;;
3311;SDS011;1668;49.648;8.570;2024-03-02T10:07:55;8.27;;;6.00;;
3311;SDS011;1668;49.648;8.570;2024-03-02T10:10:26;8.13;;;5.93;;
3311;SDS011;1668;49.648;8.570;2024-03-02T10:13:04;9.10;;;6.20;;
3311;SDS011;1668;49.648;8.570;2024-03-02T10:15:32;8.67;;;6.00;;
3311;SDS011;1668;49.648;8.570;2024-03-02T10:18:00;10.47;;;6.50;;
3311;SDS011;1668;49.648;8.570;2024-03-02T10:20:27;11.60;;;6.13;;
3311;SDS011;1668;49.648;8.570;2024-03-02T10:22:55;10.60;;;6.47;;
3311;SDS011;1668;49.648;8.570;2024-03-02T10:25:28;10.90;;;7.07;;
3311;SDS011;1668;49.648;8.570;2024-03-02T10:27:57;8.77;;;6.03;;
3311;SDS011;1668;49.648;8.570;2024-03-02T10:30:25;10.10;;;7.13;;
3311;SDS011;1668;49.648;8.570;2024-03-02T10:32:52;9.27;;;7.00;;
3311;SDS011;1668;49.648;8.570;2024-03-02T10:35:21;11.57;;;7.90;;
3311;SDS011;1668;49.648;8.570;2024-03-02T10:37:50;8.90;;;6.40;;
3311;SDS011;1668;49.648;8.570;2024-03-02T10:40:18;11.27;;;7.50;;
3311;SDS011;1668;49.648;8.570;2024-03-02T10:42:47;9.83;;;7.30;;
3311;SDS011;1668;49.648;8.570;2024-03-02T10:45:15;11.60;;;6.73;;
3311;SDS011;1668;49.648;8.570;2024-03-02T10:47:43;7.50;;;5.80;;
3311;SDS011;1668;49.648;8.570;2024-03-02T10:57:16;7.57;;;5.43;;
3311;SDS011;1668;49.648;8.570;2024-03-02T10:59:50;6.40;;;4.57;;
3311;SDS011;1668;49.648;8.570;2024-03-02T11:02:20;6.37;;;3.80;;
3311;SDS011;1668;49.648;8.570;2024-03-02T11:05:08;5.50;;;4.10;;
3311;SDS011;1668;49.648;8.570;2024-03-02T11:08:17;3.70;;;3.00;;
3311;SDS011;1668;49.648;8.570;2024-03-02T11:11:19;4.60;;;2.80;;
3311;SDS011;1668;49.648;8.570;2024-03-02T11:14:43;4.30;;;3.07;;
3311;SDS011;1668;49.648;8.570;2024-03-02T11:17:26;4.30;;;2.60;;
3311;SDS011;1668;49.648;8.570;2024-03-02T11:20:28;4.33;;;2.90;;
3311;SDS011;1668;49.648;8.570;2024-03-02T11:23:04;5.40;;;3.27;;
3311;SDS011;1668;49.648;8.570;2024-03-02T11:29:55;6.43;;;3.53;;
3311;SDS011;1668;49.648;8.570;2024-03-02T11:32:23;5.40;;;3.60;;
3311;SDS011;1668;49.648;8.570;2024-03-02T11:34:51;7.40;;;3.50;;
3311;SDS011;1668;49.648;8.570;2024-03-02T11:37:18;5.13;;;3.20;;
3311;SDS011;1668;49.648;8.570;2024-03-02T11:39:46;3.60;;;2.63;;
3311;SDS011;1668;49.648;8.570;2024-03-02T11:42:15;5.30;;;3.40;;
3311;SDS011;1668;49.648;8.570;2024-03-02T11:44:44;5.73;;;3.17;;
3311;SDS011;1668;49.648;8.570;2024-03-02T11:47:14;5.50;;;4.00;;
3311;SDS011;1668;49.648;8.570;2024-03-02T11:49:43;7.43;;;3.83;;
3311;SDS011;1668;49.648;8.570;2024-03-02T11:52:12;4.10;;;3.10;;
3311;SDS011;1668;49.648;8.570;2024-03-02T11:54:41;3.73;;;2.47;;
3311;SDS011;1668;49.648;8.570;2024-03-02T11:57:11;3.77;;;1.97;;
3311;SDS011;1668;49.648;8.570;2024-03-02T11:59:38;3.30;;;2.23;;
3311;SDS011;1668;49.648;8.570;2024-03-02T12:02:05;3.60;;;2.30;;
3311;SDS011;1668;49.648;8.570;2024-03-02T12:04:34;4.73;;;2.60;;
3311;SDS011;1668;49.648;8.570;2024-03-02T12:07:01;3.80;;;2.60;;
3311;SDS011;1668;49.648;8.570;2024-03-02T12:12:54;2.83;;;2.23;;
3311;SDS011;1668;49.648;8.570;2024-03-02T12:15:23;3.43;;;2.00;;
3311;SDS011;1668;49.648;8.570;2024-03-02T12:17:52;3.07;;;2.33;;
3311;SDS011;1668;49.648;8.570;2024-03-02T12:20:22;3.60;;;2.17;;
3311;SDS011;1668;49.648;8.570;2024-03-02T12:22:50;3.83;;;2.30;;
3311;SDS011;1668;49.648;8.570;2024-03-02T12:25:18;2.87;;;2.00;;
3311;SDS011;1668;49.648;8.570;2024-03-02T12:27:46;3.27;;;2.50;;
3311;SDS011;1668;49.648;8.570;2024-03-02T12:30:13;4.83;;;3.00;;
3311;SDS011;1668;49.648;8.570;2024-03-02T12:32:42;7.00;;;2.37;;
3311;SDS011;1668;49.648;8.570;2024-03-02T12:35:10;3.30;;;2.57;;
3311;SDS011;1668;49.648;8.570;2024-03-02T12:37:44;4.63;;;2.40;;
3311;SDS011;1668;49.648;8.570;2024-03-02T12:40:12;4.50;;;2.43;;
3311;SDS011;1668;49.648;8.570;2024-03-02T12:42:49;4.07;;;2.20;;
3311;SDS011;1668;49.648;8.570;2024-03-02T12:45:17;3.20;;;1.80;;
3311;SDS011;1668;49.648;8.570;2024-03-02T12:47:49;2.87;;;1.77;;
3311;SDS011;1668;49.648;8.570;2024-03-02T12:50:17;4.77;;;1.90;;
3311;SDS011;1668;49.648;8.570;2024-03-02T12:52:51;2.60;;;2.00;;
3311;SDS011;1668;49.648;8.570;2024-03-02T12:55:19;2.07;;;1.87;;
3311;SDS011;1668;49.648;8.570;2024-03-02T12:57:49;3.33;;;2.10;;
3311;SDS011;1668;49.648;8.570;2024-03-02T13:00:18;6.33;;;1.87;;
3311;SDS011;1668;49.648;8.570;2024-03-02T13:02:46;2.57;;;1.40;;
3311;SDS011;1668;49.648;8.570;2024-03-02T13:05:15;1.70;;;1.30;;
3311;SDS011;1668;49.648;8.570;2024-03-02T13:07:42;2.20;;;1.60;;
3311;SDS011;1668;49.648;8.570;2024-03-02T13:10:11;2.50;;;1.83;;
3311;SDS011;1668;49.648;8.570;2024-03-02T13:12:39;4.37;;;1.60;;
3311;SDS011;1668;49.648;8.570;2024-03-02T13:15:06;3.37;;;2.17;;
3311;SDS011;1668;49.648;8.570;2024-03-02T13:17:35;3.50;;;1.80;;
3311;SDS011;1668;49.648;8.570;2024-03-02T13:20:03;2.70;;;1.80;;
3311;SDS011;1668;49.648;8.570;2024-03-02T13:22:35;2.03;;;1.60;;
3311;SDS011;1668;49.648;8.570;2024-03-02T13:25:05;2.07;;;1.83;;
3311;SDS011;1668;49.648;8.570;2024-03-02T13:27:37;3.27;;;1.90;;
3311;SDS011;1668;49.648;8.570;2024-03-02T13:30:04;3.87;;;2.50;;
3311;SDS011;1668;49.648;8.570;2024-03-02T13:32:34;4.37;;;2.37;;
3311;SDS011;1668;49.648;8.570;2024-03-02T13:35:02;2.00;;;1.60;;
3311;SDS011;1668;49.648;8.570;2024-03-02T13:37:31;3.67;;;2.33;;
3311;SDS011;1668;49.648;8.570;2024-03-02T13:39:59;3.33;;;2.00;;
3311;SDS011;1668;49.648;8.570;2024-03-02T13:42:29;3.20;;;2.03;;
3311;SDS011;1668;49.648;8.570;2024-03-02T13:45:00;3.00;;;2.00;;
3311;SDS011;1668;49.648;8.570;2024-03-02T13:47:29;5.23;;;2.67;;
3311;SDS011;1668;49.648;8.570;2024-03-02T13:49:56;2.33;;;1.93;;
3311;SDS011;1668;49.648;8.570;2024-03-02T13:52:23;5.90;;;2.37;;
3311;SDS011;1668;49.648;8.570;2024-03-02T13:54:51;5.27;;;2.13;;
3311;SDS011;1668;49.648;8.570;2024-03-02T13:57:18;4.10;;;2.40;;
3311;SDS011;1668;49.648;8.570;2024-03-02T13:59:47;2.27;;;1.87;;
3311;SDS011;1668;49.648;8.570;2024-03-02T14:02:16;4.70;;;2.67;;
3311;SDS011;1668;49.648;8.570;2024-03-02T14:04:44;4.23;;;2.50;;
3311;SDS011;1668;49.648;8.570;2024-03-02T14:07:14;3.93;;;2.10;;
3311;SDS011;1668;49.648;8.570;2024-03-02T14:09:42;3.57;;;2.10;;
3311;SDS011;1668;49.648;8.570;2024-03-02T14:12:10;2.63;;;1.93;;
3311;SDS011;1668;49.648;8.570;2024-03-02T14:14:38;3.00;;;2.23;;
3311;SDS011;1668;49.648;8.570;2024-03-02T14:17:06;4.33;;;1.90;;
3311;SDS011;1668;49.648;8.570;2024-03-02T14:19:38;2.03;;;1.53;;
3311;SDS011;1668;49.648;8.570;2024-03-02T14:22:06;14.27;;;2.50;;
3311;SDS011;1668;49.648;8.570;2024-03-02T14:24:33;5.83;;;1.80;;
3311;SDS011;1668;49.648;8.570;2024-03-02T14:27:03;7.03;;;4.67;;
3311;SDS011;1668;49.648;8.570;2024-03-02T14:29:31;67.07;;;10.93;;
3311;SDS011;1668;49.648;8.570;2024-03-02T14:32:01;8.50;;;4.03;;
3311;SDS011;1668;49.648;8.570;2024-03-02T14:34:47;3.50;;;2.43;;
3311;SDS011;1668;49.648;8.570;2024-03-02T14:37:16;2.83;;;1.90;;
3311;SDS011;1668;49.648;8.570;2024-03-02T14:39:43;3.33;;;2.00;;
3311;SDS011;1668;49.648;8.570;2024-03-02T14:42:11;2.27;;;1.80;;
3311;SDS011;1668;49.648;8.570;2024-03-02T14:44:40;44.83;;;30.50;;
3311;SDS011;1668;49.648;8.570;2024-03-02T14:47:07;12.83;;;8.97;;
3311;SDS011;1668;49.648;8.570;2024-03-02T14:49:34;12.00;;;9.47;;
3311;SDS011;1668;49.648;8.570;2024-03-02T14:52:06;36.73;;;5.70;;
3311;SDS011;1668;49.648;8.570;2024-03-02T14:54:34;4.30;;;3.30;;
3311;SDS011;1668;49.648;8.570;2024-03-02T14:57:03;4.43;;;1.70;;
3311;SDS011;1668;49.648;8.570;2024-03-02T14:59:30;5.10;;;3.97;;
3311;SDS011;1668;49.648;8.570;2024-03-02T15:01:57;2.10;;;1.60;;
3311;SDS011;1668;49.648;8.570;2024-03-02T15:04:24;2.60;;;1.80;;
3311;SDS011;1668;49.648;8.570;2024-03-02T15:06:52;3.10;;;1.77;;
3311;SDS011;1668;49.648;8.570;2024-03-02T15:09:21;2.80;;;1.60;;
3311;SDS011;1668;49.648;8.570;2024-03-02T15:11:48;1.40;;;1.30;;
3311;SDS011;1668;49.648;8.570;2024-03-02T15:14:15;2.13;;;1.37;;
3311;SDS011;1668;49.648;8.570;2024-03-02T15:16:42;3.70;;;1.73;;
3311;SDS011;1668;49.648;8.570;2024-03-02T15:19:12;2.77;;;1.30;;
3311;SDS011;1668;49.648;8.570;2024-03-02T15:21:39;1.40;;;1.27;;
3311;SDS011;1668;49.648;8.570;2024-03-02T15:24:07;4.97;;;1.47;;
3311;SDS011;1668;49.648;8.570;2024-03-02T15:26:42;2.80;;;1.20;;
3311;SDS011;1668;49.648;8.570;2024-03-02T15:29:09;1.27;;;1.10;;